Time;durP1;ratioP1;P1;durP2;ratioP2;P2;SDS_P1;SDS_P2;PMS_P1;PMS_P2;Temp;Humidity;BMP_temperature;BMP_pressure;BME280_temperature;BME280_humidity;BME280_pressure;Samples;Min_cycle;Max_cycle;Signal;HPM_P1;HPM_P2
2021/01/23 00:01:59;;;;;;;1.65;0.82;;;;;;;24.84;36.30;96308.56;4934274;29;20242;-62
2021/01/23 00:04:25;;;;;;;3.03;0.60;;;;;;;24.87;36.69;96310.78;4933857;29;20578;-63
2021/01/23 00:06:51;;;;;;;1.50;0.60;;;;;;;24.90;37.45;96306.84;4933779;29;20278;-61
2021/01/23 00:09:17;;;;;;;4.32;0.77;;;;;;;24.87;36.96;96309.97;4932923;29;20591;-64
2021/01/23 00:11:43;;;;;;;1.60;0.50;;;;;;;24.90;36.69;96318.34;4933454;29;20295;-64
2021/01/23 00:14:10;;;;;;;1.08;0.73;;;;;;;24.89;36.95;96329.28;4933723;29;20254;-65
2021/01/23 00:16:36;;;;;;;2.50;0.70;;;;;;;24.83;37.15;96323.00;4932931;29;20204;-64
2021/01/23 00:19:03;;;;;;;2.95;0.70;;;;;;;24.81;36.89;96332.25;4932441;29;20215;-64
2021/01/23 00:21:29;;;;;;;1.20;0.68;;;;;;;24.82;36.84;96334.72;4932952;29;20237;-63
2021/01/23 00:23:55;;;;;;;3.03;0.47;;;;;;;24.79;36.91;96339.69;4934354;29;20623;-65
2021/01/23 00:26:21;;;;;;;4.40;0.60;;;;;;;24.77;37.44;96344.47;4932430;29;20286;-61
2021/01/23 00:28:47;;;;;;;1.58;0.50;;;;;;;24.75;36.55;96350.03;4932092;29;20286;-62
2021/01/23 00:31:14;;;;;;;0.60;0.50;;;;;;;24.74;36.90;96348.38;4933825;28;20319;-65
2021/01/23 00:33:40;;;;;;;1.75;0.75;;;;;;;24.70;37.41;96355.25;4932829;29;20234;-65
2021/01/23 00:36:07;;;;;;;1.20;0.52;;;;;;;24.70;37.05;96369.41;4932192;29;20223;-63
2021/01/23 00:38:33;;;;;;;1.30;0.52;;;;;;;24.71;37.16;96355.00;4932372;29;20675;-63
2021/01/23 00:40:59;;;;;;;1.85;0.60;;;;;;;24.70;37.52;96363.25;4931449;29;20383;-60
2021/01/23 00:43:25;;;;;;;3.13;0.60;;;;;;;24.68;36.59;96368.81;4932791;29;20584;-63
2021/01/23 00:45:51;;;;;;;1.33;0.60;;;;;;;24.65;37.57;96374.63;4933286;29;20203;-65
2021/01/23 00:48:18;;;;;;;1.13;0.63;;;;;;;24.64;37.60;96372.16;4933044;29;20203;-61
2021/01/23 00:50:45;;;;;;;3.05;0.80;;;;;;;24.62;37.53;96372.38;4931834;29;20314;-63
2021/01/23 00:53:11;;;;;;;4.95;0.80;;;;;;;24.61;36.77;96375.28;4933102;29;20227;-61
2021/01/23 00:55:37;;;;;;;0.50;0.45;;;;;;;24.53;37.74;96374.53;4932079;29;20466;-64
2021/01/23 00:58:03;;;;;;;2.00;0.50;;;;;;;24.58;37.42;96386.41;4933081;29;20547;-65
2021/01/23 01:00:30;;;;;;;2.05;0.63;;;;;;;24.56;36.50;96383.97;4932334;29;20691;-62
2021/01/23 01:02:56;;;;;;;3.33;0.70;;;;;;;24.57;36.70;96396.28;4932054;29;20214;-61
2021/01/23 01:05:23;;;;;;;2.83;0.82;;;;;;;24.53;36.75;96395.06;4931890;29;20210;-64
2021/01/23 01:07:49;;;;;;;2.25;0.50;;;;;;;24.54;36.81;96391.34;4933046;29;20643;-65
2021/01/23 01:10:15;;;;;;;1.00;0.50;;;;;;;24.45;37.44;96398.03;4932131;29;20317;-62
2021/01/23 01:12:41;;;;;;;1.88;0.80;;;;;;;24.48;37.09;96402.94;4933326;29;20211;-63
2021/01/23 01:15:08;;;;;;;1.45;0.68;;;;;;;24.50;37.69;96401.69;4931594;29;20236;-63
2021/01/23 01:17:34;;;;;;;1.50;0.82;;;;;;;24.43;36.75;96406.28;4932015;29;20867;-64
2021/01/23 01:20:00;;;;;;;1.83;0.60;;;;;;;24.42;37.80;96409.19;4932695;29;20238;-63
2021/01/23 01:22:28;;;;;;;2.85;0.88;;;;;;;24.50;36.60;96423.06;4932718;29;20221;-64
2021/01/23 01:24:54;;;;;;;1.10;0.40;;;;;;;24.42;37.37;96430.56;4933003;29;20211;-63
2021/01/23 01:27:21;;;;;;;1.23;0.52;;;;;;;24.34;37.05;96435.13;4931285;29;20634;-63
2021/01/23 01:29:47;;;;;;;1.23;0.57;;;;;;;24.38;37.23;96432.81;4931577;29;20223;-64
2021/01/23 01:32:13;;;;;;;1.50;0.70;;;;;;;24.35;37.22;96431.44;4931538;29;20324;-64
2021/01/23 01:34:39;;;;;;;1.85;0.40;;;;;;;24.37;36.97;96440.03;4914950;29;20299;-60
2021/01/23 01:37:05;;;;;;;0.90;0.45;;;;;;;24.35;37.38;96442.09;4913366;29;20316;-64
2021/01/23 01:39:32;;;;;;;1.65;0.68;;;;;;;24.34;37.64;96439.66;4913229;29;20362;-63
2021/01/23 01:42:01;;;;;;;1.30;0.65;;;;;;;24.30;37.63;96444.63;4913120;29;20219;-64
2021/01/23 01:44:27;;;;;;;2.75;0.57;;;;;;;24.31;38.05;96461.47;4915116;29;20294;-64
2021/01/23 01:46:53;;;;;;;0.80;0.60;;;;;;;24.27;36.95;96466.44;4912787;29;20288;-62
2021/01/23 01:49:19;;;;;;;2.78;0.55;;;;;;;24.27;36.86;96466.44;4916271;29;20218;-64
2021/01/23 01:51:45;;;;;;;1.40;0.60;;;;;;;24.24;37.83;96466.88;4932515;29;20207;-62
2021/01/23 01:54:13;;;;;;;1.50;0.45;;;;;;;24.22;37.89;96473.47;4932800;29;20258;-63
2021/01/23 01:56:41;;;;;;;1.58;0.60;;;;;;;24.28;37.23;96477.91;4931026;29;20203;-64
2021/01/23 01:59:07;;;;;;;2.15;0.68;;;;;;;24.24;37.13;96476.72;4932449;29;20203;-64
2021/01/23 02:01:33;;;;;;;2.03;0.50;;;;;;;24.20;38.03;96477.16;4931238;29;20269;-64
2021/01/23 02:04:08;;;;;;;2.60;0.50;;;;;;;24.15;38.09;96489.56;4931386;29;20211;-65
2021/01/23 02:06:57;;;;;;;2.08;0.60;;;;;;;24.19;37.76;96491.53;4933714;29;20207;-64
2021/01/23 02:09:34;;;;;;;1.48;0.40;;;;;;;24.24;37.74;96488.22;4933337;29;20227;-62
2021/01/23 02:12:09;;;;;;;1.92;0.52;;;;;;;24.20;37.39;96489.72;4933699;29;20214;-64
2021/01/23 02:14:45;;;;;;;1.70;0.40;;;;;;;24.19;37.37;96501.41;4936332;29;20658;-64
2021/01/23 02:17:15;;;;;;;0.95;0.50;;;;;;;24.22;37.02;96517.00;4937101;29;20240;-62
2021/01/23 02:20:05;;;;;;;0.75;0.40;;;;;;;24.23;37.03;96523.16;4936831;29;20728;-62
2021/01/23 02:22:56;;;;;;;0.82;0.40;;;;;;;24.19;37.33;96522.78;4936491;29;20683;-62
2021/01/23 02:25:24;;;;;;;1.27;0.68;;;;;;;24.24;37.96;96530.94;4936479;29;20211;-63
2021/01/23 02:28:02;;;;;;;0.47;0.47;;;;;;;24.23;37.74;96540.00;4935881;29;20687;-63
2021/01/23 02:30:38;;;;;;;1.10;0.45;;;;;;;24.26;36.87;96534.22;4936643;29;20382;-64
2021/01/23 02:33:08;;;;;;;0.60;0.30;;;;;;;24.22;37.44;96542.91;4937093;29;20217;-64
2021/01/23 02:35:35;;;;;;;1.08;0.38;;;;;;;24.17;37.72;96531.00;4936525;29;20227;-64
2021/01/23 02:38:02;;;;;;;0.32;0.30;;;;;;;24.32;37.12;96538.69;4934387;29;20294;-63
2021/01/23 02:40:29;;;;;;;3.95;0.50;;;;;;;24.30;37.55;96545.28;4935518;29;20242;-63
2021/01/23 02:42:55;;;;;;;0.65;0.40;;;;;;;24.22;37.33;96549.03;4935266;29;20278;-64
2021/01/23 02:45:21;;;;;;;0.43;0.40;;;;;;;24.26;37.67;96554.75;4935209;29;20203;-64
2021/01/23 02:47:47;;;;;;;0.75;0.40;;;;;;;24.27;37.24;96565.22;4934813;29;20302;-62
2021/01/23 02:50:14;;;;;;;0.63;0.43;;;;;;;24.10;37.31;96572.13;4933448;29;20241;-64
2021/01/23 02:52:48;;;;;;;0.80;0.50;;;;;;;24.04;37.36;96570.34;4933448;29;20553;-61
2021/01/23 02:55:19;;;;;;;0.75;0.50;;;;;;;24.12;37.18;96578.09;4935493;29;20227;-60
2021/01/23 02:57:48;;;;;;;0.63;0.40;;;;;;;24.18;37.48;96586.03;4936106;29;20208;-61
2021/01/23 03:00:18;;;;;;;0.95;0.40;;;;;;;24.09;37.19;96575.84;4935142;29;20409;-63
2021/01/23 03:02:49;;;;;;;0.50;0.40;;;;;;;24.07;37.99;96575.25;4935229;29;20214;-64
2021/01/23 03:05:17;;;;;;;1.30;0.50;;;;;;;24.10;37.88;96572.97;4935310;29;20235;-62
2021/01/23 03:07:44;;;;;;;1.55;0.50;;;;;;;24.04;37.03;96575.69;4935591;29;20251;-59
2021/01/23 03:10:11;;;;;;;1.17;0.57;;;;;;;24.07;36.96;96588.59;4933120;29;20318;-62
2021/01/23 03:12:37;;;;;;;0.60;0.43;;;;;;;24.03;38.11;96590.84;4936063;29;20204;-61
2021/01/23 03:15:04;;;;;;;0.68;0.50;;;;;;;24.11;37.85;96595.13;4933836;29;20231;-61
2021/01/23 03:17:30;;;;;;;0.73;0.40;;;;;;;24.04;37.41;96605.84;4935382;29;20208;-63
2021/01/23 03:19:56;;;;;;;0.98;0.65;;;;;;;24.00;37.37;96604.66;4935258;29;20291;-64
2021/01/23 03:22:23;;;;;;;1.83;0.30;;;;;;;24.07;37.19;96607.28;4933408;29;20226;-62
2021/01/23 03:24:49;;;;;;;0.30;0.30;;;;;;;24.08;36.95;96601.72;4932578;29;20254;-61
2021/01/23 03:27:15;;;;;;;1.20;0.30;;;;;;;24.15;37.82;96607.84;4933425;29;20210;-62
2021/01/23 03:29:41;;;;;;;0.90;0.43;;;;;;;24.23;37.33;96608.59;4933850;29;20237;-62
2021/01/23 03:32:07;;;;;;;0.45;0.40;;;;;;;24.24;36.69;96615.59;4933206;29;20278;-56
2021/01/23 03:34:34;;;;;;;0.63;0.40;;;;;;;24.18;36.70;96622.59;4934026;29;20208;-62
2021/01/23 03:37:00;;;;;;;0.50;0.30;;;;;;;24.22;37.58;96615.78;4933738;29;20207;-60
2021/01/23 03:39:27;;;;;;;1.80;0.30;;;;;;;24.26;36.61;96616.19;4933794;29;20243;-60
2021/01/23 03:41:53;;;;;;;0.30;0.30;;;;;;;24.17;37.77;96623.63;4933146;29;20203;-62
2021/01/23 03:44:19;;;;;;;0.35;0.30;;;;;;;24.24;36.68;96632.41;4933886;29;20224;-62
2021/01/23 03:46:45;;;;;;;2.17;0.40;;;;;;;24.22;37.70;96625.66;4933998;29;20282;-60
2021/01/23 03:49:11;;;;;;;1.80;0.40;;;;;;;24.22;37.67;96623.00;4933100;29;20211;-63
2021/01/23 03:51:37;;;;;;;0.50;0.40;;;;;;;24.20;37.54;96629.34;4932974;29;20208;-61
2021/01/23 03:54:04;;;;;;;1.15;0.50;;;;;;;24.18;37.61;96635.94;4932779;29;20208;-61
2021/01/23 03:56:31;;;;;;;0.40;0.40;;;;;;;24.12;37.28;96634.16;4933114;29;20224;-67
2021/01/23 03:58:57;;;;;;;0.52;0.30;;;;;;;24.19;37.70;96643.72;4935144;29;20278;-60
2021/01/23 04:01:23;;;;;;;1.02;0.40;;;;;;;24.15;37.63;96639.88;4934069;29;20231;-59
2021/01/23 04:03:49;;;;;;;0.50;0.30;;;;;;;24.18;37.58;96643.94;4933133;29;20659;-64
2021/01/23 04:06:15;;;;;;;1.63;0.60;;;;;;;24.12;37.67;96653.66;4932769;29;20226;-63
2021/01/23 04:08:41;;;;;;;0.57;0.30;;;;;;;24.16;36.79;96656.69;4932746;29;20679;-63
2021/01/23 04:11:07;;;;;;;0.30;0.30;;;;;;;24.18;36.82;96654.63;4931172;29;20224;-61
2021/01/23 04:13:34;;;;;;;0.40;0.40;;;;;;;24.12;36.75;96660.84;4934015;29;20281;-64
2021/01/23 04:16:00;;;;;;;0.30;0.30;;;;;;;24.11;36.73;96660.00;4933200;29;20224;-63
2021/01/23 04:18:26;;;;;;;0.95;0.47;;;;;;;24.10;37.19;96663.72;4933847;29;20259;-64
2021/01/23 04:20:52;;;;;;;0.63;0.43;;;;;;;24.08;37.61;96656.94;4932811;29;20232;-60
2021/01/23 04:23:19;;;;;;;0.85;0.40;;;;;;;24.09;37.33;96663.94;4933075;29;20266;-62
2021/01/23 04:25:45;;;;;;;0.43;0.38;;;;;;;24.07;36.89;96671.34;4933041;29;20211;-62
2021/01/23 04:28:14;;;;;;;1.42;0.55;;;;;;;24.08;37.48;96668.47;4933315;29;20618;-59
2021/01/23 04:30:41;;;;;;;2.75;0.57;;;;;;;24.05;37.54;96663.56;4933473;29;20235;-61
2021/01/23 04:33:08;;;;;;;0.40;0.38;;;;;;;24.07;37.90;96663.34;4934071;29;20310;-60
2021/01/23 04:35:34;;;;;;;0.28;0.28;;;;;;;24.11;37.21;96664.53;4933183;29;20770;-64
2021/01/23 04:38:00;;;;;;;0.50;0.40;;;;;;;24.05;37.18;96665.38;4932632;29;20207;-62
2021/01/23 04:40:28;;;;;;;2.03;0.30;;;;;;;24.02;37.08;96670.13;4931981;29;20278;-63
2021/01/23 04:42:55;;;;;;;0.60;0.30;;;;;;;24.07;36.62;96661.47;4933233;29;20221;-63
2021/01/23 04:45:21;;;;;;;2.10;0.40;;;;;;;23.99;37.51;96657.19;4933182;29;20207;-63
2021/01/23 04:47:52;;;;;;;0.75;0.40;;;;;;;24.04;36.88;96653.09;4931764;29;20278;-63
2021/01/23 04:50:18;;;;;;;0.98;0.52;;;;;;;24.04;37.38;96653.09;4934553;28;20237;-64
2021/01/23 04:52:44;;;;;;;1.48;0.55;;;;;;;24.05;37.20;96654.72;4933146;29;20210;-65
2021/01/23 04:55:11;;;;;;;0.68;0.30;;;;;;;23.99;36.88;96656.38;4932046;29;20596;-64
2021/01/23 04:57:37;;;;;;;0.52;0.30;;;;;;;24.05;37.33;96654.72;4933033;29;20217;-62
2021/01/23 05:00:05;;;;;;;1.08;0.82;;;;;;;24.12;36.94;96655.50;4932188;29;20227;-63
2021/01/23 05:02:31;;;;;;;0.63;0.40;;;;;;;24.07;37.77;96648.13;4932663;29;20298;-64
2021/01/23 05:05:00;;;;;;;0.25;0.22;;;;;;;24.05;37.66;96650.22;4932562;29;20248;-62
2021/01/23 05:07:29;;;;;;;1.00;0.40;;;;;;;24.12;37.46;96650.16;4932750;29;20211;-63
2021/01/23 05:09:56;;;;;;;0.85;0.40;;;;;;;23.99;37.28;96651.88;4932980;29;20228;-64
2021/01/23 05:12:35;;;;;;;0.40;0.40;;;;;;;24.08;37.38;96654.28;4932568;29;20723;-63
2021/01/23 05:15:02;;;;;;;1.95;0.40;;;;;;;24.01;36.93;96657.81;4932620;29;20227;-64
2021/01/23 05:17:28;;;;;;;0.40;0.30;;;;;;;23.95;36.80;96653.34;4930775;29;20233;-64
2021/01/23 05:19:54;;;;;;;1.27;0.60;;;;;;;23.90;37.21;96647.81;4932072;29;20313;-60
2021/01/23 05:22:21;;;;;;;0.60;0.40;;;;;;;23.95;37.34;96648.00;4932099;29;20299;-62
2021/01/23 05:24:49;;;;;;;1.10;0.40;;;;;;;23.93;37.52;96652.75;4932568;29;20207;-63
2021/01/23 05:27:15;;;;;;;1.05;0.60;;;;;;;23.83;37.97;96647.00;4931970;29;20203;-63
2021/01/23 05:30:09;;;;;;;0.30;0.30;;;;;;;23.89;37.90;96651.50;4932653;29;20272;-64
2021/01/23 05:32:35;;;;;;;0.60;0.47;;;;;;;23.86;36.87;96654.59;4898790;29;20295;-64
2021/01/23 05:35:12;;;;;;;1.00;0.40;;;;;;;23.82;37.18;96658.75;4931968;29;20238;-64
2021/01/23 05:37:39;;;;;;;1.20;0.50;;;;;;;23.81;37.89;96654.41;4932679;29;20211;-64
2021/01/23 05:40:07;;;;;;;1.55;0.30;;;;;;;23.84;38.01;96662.00;4932507;29;20234;-62
2021/01/23 05:42:41;;;;;;;0.40;0.40;;;;;;;23.90;37.06;96663.84;4933654;29;20282;-61
2021/01/23 05:45:12;;;;;;;0.73;0.50;;;;;;;23.94;37.39;96669.56;4931648;29;20210;-64
2021/01/23 05:47:39;;;;;;;0.60;0.30;;;;;;;23.96;37.90;96673.63;4933270;29;20211;-64
2021/01/23 05:50:07;;;;;;;1.05;0.50;;;;;;;24.02;36.69;96667.44;4936517;29;20234;-63
2021/01/23 05:52:34;;;;;;;0.55;0.40;;;;;;;23.97;36.82;96664.59;4936501;29;20210;-64
2021/01/23 05:55:01;;;;;;;0.40;0.40;;;;;;;23.95;37.08;96672.03;4936412;29;20231;-64
2021/01/23 05:57:28;;;;;;;0.98;0.40;;;;;;;24.06;36.61;96672.38;4936641;29;20211;-66
2021/01/23 05:59:54;;;;;;;0.57;0.35;;;;;;;24.02;37.14;96667.44;4936741;29;20254;-64
2021/01/23 06:02:22;;;;;;;0.20;0.20;;;;;;;24.01;37.77;96673.84;4937282;29;20233;-64
2021/01/23 06:04:50;;;;;;;1.25;0.40;;;;;;;24.00;36.83;96674.88;4936081;29;20287;-64
2021/01/23 06:07:45;;;;;;;0.52;0.30;;;;;;;24.02;36.71;96664.78;4936616;29;20297;-63
2021/01/23 06:10:41;;;;;;;0.30;0.25;;;;;;;24.05;37.25;96668.91;4936672;29;20255;-63
2021/01/23 06:13:48;;;;;;;0.40;0.30;;;;;;;24.07;37.78;96668.69;4936907;29;20245;-62
2021/01/23 06:16:44;;;;;;;0.50;0.40;;;;;;;24.12;36.62;96666.19;4934635;29;20223;-64
2021/01/23 06:19:41;;;;;;;1.05;0.70;;;;;;;24.09;37.71;96670.09;4937276;29;20294;-62
2021/01/23 06:22:08;;;;;;;0.55;0.40;;;;;;;24.17;36.96;96669.03;4931293;29;20207;-65
2021/01/23 06:24:53;;;;;;;0.40;0.40;;;;;;;24.14;37.16;96664.13;4935851;29;20298;-63
2021/01/23 06:27:19;;;;;;;1.20;0.40;;;;;;;24.22;36.44;96655.03;4934814;29;20579;-63
2021/01/23 06:29:46;;;;;;;0.57;0.40;;;;;;;24.17;37.29;96658.34;4935135;29;20268;-62
2021/01/23 06:32:29;;;;;;;0.73;0.28;;;;;;;24.16;37.56;96654.03;4936178;29;20220;-63
2021/01/23 06:34:57;;;;;;;1.45;0.40;;;;;;;24.24;37.42;96661.78;4917600;29;20585;-61
2021/01/23 06:37:27;;;;;;;0.68;0.40;;;;;;;24.33;37.28;96659.66;4917035;29;20248;-59
2021/01/23 06:40:04;;;;;;;0.80;0.30;;;;;;;24.41;36.72;96664.75;4917630;29;20242;-62
2021/01/23 06:42:30;;;;;;;0.90;0.47;;;;;;;24.49;37.41;96653.78;4917838;29;20262;-61
2021/01/23 06:45:10;;;;;;;1.48;0.30;;;;;;;24.60;36.26;96651.47;4916495;29;20208;-62
2021/01/23 06:47:39;;;;;;;0.70;0.40;;;;;;;24.75;36.67;96660.00;4920277;29;20287;-61
2021/01/23 06:50:06;;;;;;;0.35;0.30;;;;;;;24.86;36.36;96655.78;4935823;29;20231;-61
2021/01/23 06:52:43;;;;;;;0.50;0.40;;;;;;;24.97;36.13;96663.09;4935169;29;20245;-61
2021/01/23 06:55:10;;;;;;;0.50;0.40;;;;;;;25.05;36.03;96662.00;4936072;29;20643;-64
2021/01/23 06:57:43;;;;;;;0.55;0.30;;;;;;;25.05;35.67;96649.44;4933423;29;20719;-64
2021/01/23 07:00:10;;;;;;;0.30;0.30;;;;;;;25.14;36.48;96649.16;4934072;29;20231;-62
2021/01/23 07:02:37;;;;;;;2.47;0.32;;;;;;;25.24;36.37;96646.78;4934309;29;20217;-64
2021/01/23 07:05:07;;;;;;;0.68;0.40;;;;;;;25.21;36.52;96647.22;4934034;29;20262;-62
2021/01/23 07:07:36;;;;;;;0.35;0.30;;;;;;;25.24;35.82;96657.50;4935298;29;20298;-62
2021/01/23 07:10:06;;;;;;;0.65;0.40;;;;;;;25.35;35.40;96663.97;4933783;29;20326;-63
2021/01/23 07:12:39;;;;;;;1.65;0.40;;;;;;;25.32;35.80;96665.25;4934424;29;20250;-63
2021/01/23 07:15:07;;;;;;;0.30;0.30;;;;;;;25.38;36.24;96666.22;4935083;29;22230;-64
2021/01/23 07:17:34;;;;;;;0.47;0.30;;;;;;;25.32;35.76;96659.09;4934948;29;20263;-62
2021/01/23 07:20:05;;;;;;;0.35;0.30;;;;;;;25.37;35.19;96667.28;4933582;29;20238;-64
2021/01/23 07:22:31;;;;;;;0.30;0.20;;;;;;;25.40;36.16;96664.97;4933755;29;20213;-61
2021/01/23 07:24:58;;;;;;;0.38;0.38;;;;;;;25.39;35.89;96660.63;4933801;29;20218;-58
2021/01/23 07:27:25;;;;;;;0.55;0.30;;;;;;;25.36;35.55;96671.78;4933209;29;20266;-60
2021/01/23 07:29:52;;;;;;;0.28;0.20;;;;;;;25.38;36.05;96669.72;4935052;29;20232;-61
2021/01/23 07:32:18;;;;;;;1.33;0.30;;;;;;;25.41;35.78;96669.25;4933994;29;20306;-63
2021/01/23 07:34:54;;;;;;;1.15;0.30;;;;;;;25.43;35.22;96669.03;4933409;29;20229;-63
2021/01/23 07:37:45;;;;;;;0.57;0.40;;;;;;;25.36;34.57;96673.66;4935249;29;20555;-63
2021/01/23 07:40:14;;;;;;;0.70;0.40;;;;;;;25.31;34.56;96679.66;4934467;29;20254;-60
2021/01/23 07:42:41;;;;;;;0.50;0.30;;;;;;;25.26;35.55;96669.66;4933972;29;20207;-63
2021/01/23 07:45:09;;;;;;;2.75;0.40;;;;;;;25.14;35.01;96660.66;4933254;29;20242;-62
2021/01/23 07:47:36;;;;;;;0.50;0.50;;;;;;;25.07;34.97;96663.41;4934649;29;20209;-62
2021/01/23 07:50:08;;;;;;;0.63;0.40;;;;;;;25.12;35.83;96663.56;4933500;29;20720;-64
2021/01/23 07:52:34;;;;;;;1.48;0.30;;;;;;;25.22;35.70;96671.06;4933941;29;20207;-64
2021/01/23 07:55:01;;;;;;;0.30;0.30;;;;;;;25.32;35.14;96667.94;4932322;29;20226;-63
2021/01/23 07:57:28;;;;;;;1.65;0.30;;;;;;;25.25;35.10;96669.84;4933660;29;20196;-67
2021/01/23 07:59:54;;;;;;;5.47;0.73;;;;;;;25.42;36.43;96665.53;4933211;29;20321;-65
2021/01/23 08:02:20;;;;;;;7.47;0.50;;;;;;;25.46;35.59;96655.22;4932963;29;20299;-65
2021/01/23 08:04:48;;;;;;;7.70;0.75;;;;;;;25.51;36.76;96659.91;4933256;29;20211;-66
2021/01/23 08:07:25;;;;;;;6.20;0.80;;;;;;;25.59;35.83;96649.69;4933687;29;20299;-65
2021/01/23 08:10:06;;;;;;;7.72;0.70;;;;;;;25.63;35.89;96650.06;4934190;29;20227;-66
2021/01/23 08:12:33;;;;;;;6.07;1.02;;;;;;;25.57;36.06;96646.44;4933181;29;20547;-66
2021/01/23 08:14:59;;;;;;;9.98;1.08;;;;;;;25.76;35.71;96649.91;4933698;29;20370;-69
2021/01/23 08:17:40;;;;;;;8.30;0.70;;;;;;;25.88;35.33;96646.47;4934673;29;20382;-68
2021/01/23 08:20:07;;;;;;;2.33;0.90;;;;;;;25.90;35.97;96647.09;4934663;29;20310;-68
2021/01/23 08:22:34;;;;;;;8.40;0.82;;;;;;;25.94;35.11;96640.22;4934415;29;20307;-68
2021/01/23 08:25:20;;;;;;;11.20;1.55;;;;;;;25.88;35.30;96638.44;4933237;29;20403;-68
2021/01/23 08:27:47;;;;;;;4.90;0.90;;;;;;;25.82;35.84;96638.31;4934527;29;20246;-70
2021/01/23 08:30:15;;;;;;;4.03;0.60;;;;;;;25.69;35.40;96643.81;4933424;29;20223;-68
2021/01/23 08:32:41;;;;;;;5.63;1.05;;;;;;;25.58;36.14;96649.94;4933902;29;20252;-68
2021/01/23 08:35:08;;;;;;;11.50;1.30;;;;;;;25.34;36.01;96635.59;4934612;29;20239;-68
2021/01/23 08:37:34;;;;;;;6.13;0.60;;;;;;;25.36;36.66;96642.34;4931890;29;20267;-69
2021/01/23 08:40:00;;;;;;;9.27;1.20;;;;;;;25.18;37.23;96645.00;4933717;29;20234;-67
2021/01/23 08:42:27;;;;;;;2.15;0.50;;;;;;;25.19;36.50;96643.97;4932670;29;20294;-66
2021/01/23 08:44:54;;;;;;;8.02;0.80;;;;;;;25.41;36.18;96626.44;4932165;29;20218;-68
2021/01/23 08:47:20;;;;;;;9.75;1.00;;;;;;;25.58;36.09;96628.53;4934239;29;20290;-67
2021/01/23 08:49:46;;;;;;;7.15;1.13;;;;;;;25.74;36.62;96635.13;4933498;29;20231;-69
2021/01/23 08:52:12;;;;;;;4.80;1.08;;;;;;;25.89;36.43;96632.06;4932096;29;20211;-69
2021/01/23 08:54:40;;;;;;;8.15;1.13;;;;;;;25.98;37.33;96628.03;4932625;29;20706;-67
2021/01/23 08:57:07;;;;;;;5.78;1.08;;;;;;;26.14;36.85;96624.72;4933224;29;20771;-69
2021/01/23 08:59:33;;;;;;;10.00;1.25;;;;;;;26.17;37.25;96629.59;4934119;29;20707;-67
2021/01/23 09:02:00;;;;;;;6.53;1.05;;;;;;;26.17;36.57;96626.13;4935652;29;20291;-69
2021/01/23 09:04:26;;;;;;;9.18;1.00;;;;;;;26.21;36.18;96628.13;4933448;29;20266;-69
2021/01/23 09:06:52;;;;;;;9.65;1.00;;;;;;;26.17;36.37;96629.59;4933252;29;20679;-68
2021/01/23 09:09:18;;;;;;;7.07;0.68;;;;;;;26.20;36.62;96625.66;4932384;29;20207;-69
2021/01/23 09:11:44;;;;;;;5.15;0.95;;;;;;;26.15;36.14;96618.31;4930822;29;20369;-69
2021/01/23 09:14:11;;;;;;;3.80;0.80;;;;;;;26.13;35.50;96615.06;4931715;29;20203;-68
2021/01/23 09:16:37;;;;;;;4.38;0.80;;;;;;;26.14;35.83;96613.19;4931872;29;20571;-69
2021/01/23 09:19:04;;;;;;;4.35;0.70;;;;;;;26.09;35.68;96616.53;4930688;29;20203;-67
2021/01/23 09:21:30;;;;;;;2.60;0.65;;;;;;;26.01;35.82;96623.06;4931450;29;20211;-68
2021/01/23 09:23:56;;;;;;;2.95;0.65;;;;;;;25.99;36.14;96621.63;4932006;29;20298;-68
2021/01/23 09:26:23;;;;;;;6.47;0.88;;;;;;;25.92;36.47;96610.19;4932105;29;20690;-69
2021/01/23 09:28:49;;;;;;;3.58;0.80;;;;;;;25.85;35.53;96611.09;4931364;29;20215;-67
2021/01/23 09:31:15;;;;;;;1.73;0.93;;;;;;;25.85;36.34;96605.72;4932611;29;20322;-67
2021/01/23 09:33:41;;;;;;;2.67;0.80;;;;;;;25.81;35.94;96604.56;4931898;29;20238;-66
2021/01/23 09:36:09;;;;;;;6.97;1.10;;;;;;;25.80;36.10;96602.91;4932279;29;20254;-65
2021/01/23 09:38:35;;;;;;;3.47;0.73;;;;;;;25.77;36.41;96592.66;4933736;29;20306;-64
2021/01/23 09:41:01;;;;;;;6.95;1.00;;;;;;;25.70;36.41;96591.94;4933146;29;20276;-67
2021/01/23 09:43:27;;;;;;;3.65;0.88;;;;;;;25.68;36.05;96591.34;4933392;29;20207;-64
2021/01/23 09:45:53;;;;;;;8.00;0.80;;;;;;;25.60;36.30;96586.31;4933616;29;20298;-66
2021/01/23 09:48:21;;;;;;;2.08;0.98;;;;;;;25.39;35.06;96588.41;4932844;29;20297;-67
2021/01/23 09:50:47;;;;;;;2.15;0.77;;;;;;;25.43;35.10;96581.59;4934113;29;20361;-63
2021/01/23 09:53:14;;;;;;;13.73;0.85;;;;;;;25.35;36.00;96581.06;4930877;29;20298;-67
2021/01/23 09:55:42;;;;;;;18.13;1.20;;;;;;;25.39;36.04;96580.38;4930897;29;20224;-65
2021/01/23 09:58:08;;;;;;;10.55;1.20;;;;;;;25.37;35.70;96576.31;4933195;29;20211;-64
2021/01/23 10:00:34;;;;;;;2.50;0.82;;;;;;;25.41;36.37;96572.13;4930670;29;20327;-66
2021/01/23 10:03:00;;;;;;;19.25;1.52;;;;;;;25.39;36.87;96575.03;4931887;29;20208;-66
2021/01/23 10:05:27;;;;;;;6.05;1.10;;;;;;;25.34;36.39;96566.06;4933037;29;20286;-69
2021/01/23 10:07:53;;;;;;;4.00;0.98;;;;;;;25.42;36.60;96568.44;4931119;29;20278;-70
2021/01/23 10:10:21;;;;;;;6.78;0.77;;;;;;;25.39;35.88;96566.19;4930758;29;20318;-69
2021/01/23 10:12:47;;;;;;;3.85;1.10;;;;;;;25.46;35.92;96562.41;4933736;29;20207;-69
2021/01/23 10:15:13;;;;;;;10.13;1.23;;;;;;;25.54;34.96;96555.91;4932870;29;20263;-69
2021/01/23 10:17:39;;;;;;;5.40;1.00;;;;;;;25.56;35.70;96553.00;4930661;29;20672;-69
2021/01/23 10:20:07;;;;;;;5.07;0.80;;;;;;;25.61;35.24;96545.97;4930809;29;20314;-69
2021/01/23 10:22:33;;;;;;;12.73;1.52;;;;;;;25.57;35.77;96539.41;4932170;29;20204;-69
2021/01/23 10:24:59;;;;;;;6.10;1.08;;;;;;;25.59;35.87;96541.84;4932373;29;20214;-70
2021/01/23 10:27:26;;;;;;;5.53;1.00;;;;;;;25.57;34.76;96533.25;4929906;29;20227;-69
2021/01/23 10:29:53;;;;;;;6.75;0.93;;;;;;;25.56;35.74;96531.59;4931345;29;20235;-69
2021/01/23 10:32:19;;;;;;;12.82;1.33;;;;;;;25.51;35.61;96528.78;4931680;29;20219;-67
2021/01/23 10:34:45;;;;;;;5.85;1.33;;;;;;;25.42;36.07;96520.28;4933718;29;20636;-67
2021/01/23 10:37:12;;;;;;;9.57;1.45;;;;;;;25.54;35.37;96517.66;4934030;29;20825;-70
2021/01/23 10:39:38;;;;;;;12.18;1.58;;;;;;;25.51;35.41;96513.56;4934315;29;20260;-72
2021/01/23 10:42:05;;;;;;;6.22;1.00;;;;;;;25.43;35.32;96512.03;4935199;29;20303;-70
2021/01/23 10:44:38;;;;;;;9.95;1.20;;;;;;;25.42;35.93;96509.59;4934036;29;20294;-72
2021/01/23 10:47:04;;;;;;;5.90;1.30;;;;;;;25.43;34.89;96498.66;4937045;29;20199;-71
2021/01/23 10:49:30;;;;;;;12.13;2.33;;;;;;;25.44;35.15;96491.44;4934355;29;20227;-74
2021/01/23 10:51:56;;;;;;;10.13;2.30;;;;;;;25.45;36.46;96493.88;4935062;29;20211;-71
2021/01/23 10:54:22;;;;;;;14.52;3.20;;;;;;;25.36;36.20;96483.72;4933739;29;20235;-70
2021/01/23 10:56:48;;;;;;;24.02;3.90;;;;;;;25.40;37.52;96479.56;4934926;29;20721;-68
2021/01/23 10:59:14;;;;;;;21.38;3.22;;;;;;;25.34;37.31;96475.94;4935094;29;20287;-69
2021/01/23 11:01:41;;;;;;;18.17;3.63;;;;;;;25.39;37.42;96478.72;4934740;29;20294;-69
2021/01/23 11:04:08;;;;;;;19.10;4.65;;;;;;;25.30;36.67;96464.06;4935877;29;20229;-70
2021/01/23 11:06:34;;;;;;;23.60;4.25;;;;;;;25.31;37.03;96468.34;4934809;29;20270;-71
2021/01/23 11:09:00;;;;;;;17.58;4.57;;;;;;;25.27;37.34;96465.31;4935537;29;20328;-71
2021/01/23 11:11:26;;;;;;;19.83;4.10;;;;;;;25.29;37.17;96459.75;4935832;29;20307;-72
2021/01/23 11:13:52;;;;;;;14.05;4.45;;;;;;;25.26;36.75;96455.69;4935420;29;20742;-71
2021/01/23 11:16:19;;;;;;;17.38;4.30;;;;;;;25.29;36.97;96446.38;4934110;29;20255;-71
2021/01/23 11:18:46;;;;;;;18.05;4.63;;;;;;;25.35;37.85;96442.81;4934676;29;20243;-71
2021/01/23 11:21:12;;;;;;;28.55;6.38;;;;;;;25.38;39.05;96439.66;4934343;29;20301;-70
2021/01/23 11:23:38;;;;;;;28.90;6.00;;;;;;;25.37;38.83;96432.69;4933170;29;20748;-66
2021/01/23 11:26:04;;;;;;;30.10;6.13;;;;;;;25.33;38.87;96433.34;4935553;29;20220;-69
2021/01/23 11:28:30;;;;;;;44.30;8.90;;;;;;;25.37;38.57;96432.69;4936235;29;20247;-69
2021/01/23 11:30:57;;;;;;;40.40;9.10;;;;;;;25.47;39.48;96432.94;4934842;29;20239;-70
2021/01/23 11:33:23;;;;;;;37.03;7.95;;;;;;;25.50;39.34;96426.31;4936789;29;20274;-70
2021/01/23 11:35:50;;;;;;;29.15;8.43;;;;;;;25.54;40.23;96434.69;4937178;29;20263;-68
2021/01/23 11:38:16;;;;;;;37.95;8.18;;;;;;;25.65;39.29;96428.56;4938586;29;20282;-70